createdAt,value
2019-02-14T00:00:35.787Z,100038.31
2019-02-14T00:04:41.503Z,100043.28
2019-02-14T00:09:16.815Z,100039.28
2019-02-14T00:13:22.553Z,100036.61
2019-02-14T00:17:28.258Z,100032.86
2019-02-14T00:21:33.978Z,100027.89
2019-02-14T00:26:18.822Z,100025.32
2019-02-14T00:30:24.529Z,100017.59
2019-02-14T00:34:32.082Z,100011.50
2019-02-14T00:38:37.839Z,100003.88
2019-02-14T00:42:43.544Z,100005.70
2019-02-14T00:46:49.264Z,99996.22
2019-02-14T00:50:55.030Z,100005.86
2019-02-14T00:55:00.733Z,100002.42
2019-02-14T00:59:06.439Z,100004.47
2019-02-14T01:03:12.146Z,99999.72
2019-02-14T01:07:17.811Z,100000.61
2019-02-14T01:11:23.500Z,100002.17
2019-02-14T01:15:29.531Z,100003.90
2019-02-14T01:19:38.117Z,100005.57
2019-02-14T01:23:42.604Z,100004.69
2019-02-14T01:27:48.389Z,100000.61
2019-02-14T01:31:54.144Z,99987.83
2019-02-14T01:35:59.843Z,99997.41
2019-02-14T01:40:17.354Z,99987.20
2019-02-14T01:44:40.906Z,99983.79
2019-02-14T01:50:16.358Z,99979.83
2019-02-14T02:05:14.669Z,99979.06
2019-02-14T02:09:20.348Z,99970.59
2019-02-14T02:18:20.119Z,99973.15
2019-02-14T02:23:16.666Z,99970.76
2019-02-14T02:27:22.457Z,99965.40
2019-02-14T02:32:16.219Z,99957.02
2019-02-14T02:36:23.521Z,99955.38
2019-02-14T02:40:29.358Z,99953.73
2019-02-14T02:44:35.038Z,99968.91
2019-02-14T02:49:16.648Z,99958.08
2019-02-14T02:53:24.013Z,99953.16
2019-02-14T03:02:19.738Z,99955.20
2019-02-14T03:06:25.437Z,99955.44
2019-02-14T03:10:31.291Z,99959.83
2019-02-14T03:14:36.977Z,99961.17
2019-02-14T03:19:15.303Z,99962.42
2019-02-14T03:28:16.937Z,99975.73
2019-02-14T03:32:22.617Z,99973.30
2019-02-14T03:36:28.327Z,99976.42
2019-02-14T03:40:34.087Z,99979.24
2019-02-14T03:44:39.764Z,99971.48
2019-02-14T03:48:45.436Z,99966.03
2019-02-14T03:52:51.208Z,99971.75
2019-02-14T03:56:56.899Z,99977.23
2019-02-14T04:01:14.417Z,99976.59
2019-02-14T04:05:20.137Z,99973.36
2019-02-14T04:09:25.796Z,99979.19
2019-02-14T04:13:31.635Z,99992.48
2019-02-14T04:17:37.327Z,99997.92
2019-02-14T04:21:43.008Z,99994.83
2019-02-14T04:26:18.055Z,100011.16
2019-02-14T04:30:23.726Z,100009.64
2019-02-14T04:34:29.589Z,100011.67
2019-02-14T04:38:35.288Z,100009.05
2019-02-14T04:42:41.129Z,100006.81
2019-02-14T04:46:48.050Z,100009.98
2019-02-14T04:50:53.812Z,100003.44
2019-02-14T04:55:16.925Z,100007.05
2019-02-14T04:59:22.613Z,100007.73
2019-02-14T05:04:16.261Z,100011.91
2019-02-14T05:08:21.945Z,100015.11
2019-02-14T05:12:27.694Z,100010.94
2019-02-14T05:16:33.397Z,100018.66
2019-02-14T05:20:39.091Z,100017.95
2019-02-14T05:24:44.780Z,100017.85
2019-02-14T05:28:50.503Z,100017.17
2019-02-14T05:32:56.222Z,100017.17
2019-02-14T05:37:17.222Z,100023.80
2019-02-14T05:41:22.909Z,100026.34
2019-02-14T05:45:28.649Z,100021.95
2019-02-14T05:49:34.318Z,100021.25
2019-02-14T06:00:19.143Z,100017.86
2019-02-14T06:19:18.339Z,100051.70
2019-02-14T06:40:14.416Z,100080.80
2019-02-14T06:51:15.315Z,100084.37
2019-02-14T07:01:19.710Z,100085.97
2019-02-14T07:06:16.122Z,100088.27
2019-02-14T07:11:15.878Z,100090.98
2019-02-14T07:21:17.293Z,100088.37
2019-02-14T07:26:16.938Z,100094.11
2019-02-14T07:30:40.171Z,100085.78
2019-02-14T08:01:15.133Z,100095.34
2019-02-14T08:05:20.830Z,100107.84
2019-02-14T08:36:14.539Z,100108.23
2019-02-14T08:45:21.304Z,100114.47
2019-02-14T08:50:17.433Z,100125.67
2019-02-14T08:55:17.140Z,100132.25
2019-02-14T09:11:16.112Z,100108.80
2019-02-14T09:30:21.420Z,100104.30
2019-02-14T09:50:15.310Z,100105.15
2019-02-14T09:59:20.189Z,100097.13
2019-02-14T10:03:25.899Z,100096.05
2019-02-14T10:07:31.590Z,100099.20
2019-02-14T10:44:14.830Z,100089.13
2019-02-14T10:55:15.929Z,100075.59
2019-02-14T11:05:08.908Z,100069.86
2019-02-14T11:09:14.602Z,100066.24
2019-02-14T11:13:20.484Z,100055.47
2019-02-14T11:17:26.794Z,100061.05
2019-02-14T11:21:32.507Z,100053.23
2019-02-14T11:25:40.028Z,100050.64
2019-02-14T11:29:45.750Z,100056.17
2019-02-14T11:33:51.542Z,100044.37
2019-02-14T11:37:58.304Z,100043.05
2019-02-14T11:42:04.282Z,100030.08
2019-02-14T11:46:10.073Z,100023.92
2019-02-14T11:50:15.831Z,100018.37
2019-02-14T11:54:21.497Z,100012.63
2019-02-14T11:58:27.212Z,100018.52
2019-02-14T12:02:32.986Z,100019.15
2019-02-14T12:06:38.733Z,100020.43
2019-02-14T12:10:44.491Z,100014.07
2019-02-14T12:14:51.490Z,100011.09
2019-02-14T12:18:57.182Z,100008.48
2019-02-14T12:23:02.906Z,100003.27
2019-02-14T12:27:08.776Z,100002.44
2019-02-14T12:31:14.569Z,99995.55
2019-02-14T12:35:20.328Z,99979.13
2019-02-14T12:39:26.035Z,99973.43
2019-02-14T12:43:33.374Z,99973.55
2019-02-14T12:47:39.077Z,99962.06
2019-02-14T12:51:46.420Z,99954.31
2019-02-14T12:55:52.119Z,99942.39
2019-02-14T12:59:57.811Z,99929.06
2019-02-14T13:04:03.557Z,99933.49
2019-02-14T13:08:09.267Z,99926.56
2019-02-14T13:12:15.163Z,99928.30
2019-02-14T13:16:20.876Z,99912.91
2019-02-14T13:20:26.654Z,99914.16
2019-02-14T13:24:32.344Z,99910.79
2019-02-14T13:28:38.054Z,99904.95
2019-02-14T13:32:43.790Z,99910.71
2019-02-14T13:36:49.495Z,99908.80
2019-02-14T13:40:56.836Z,99903.09
2019-02-14T13:45:02.533Z,99910.67
2019-02-14T13:49:08.313Z,99894.22
2019-02-14T13:53:14.069Z,99889.43
2019-02-14T13:57:19.785Z,99891.90
2019-02-14T14:01:25.517Z,99893.81
2019-02-14T14:05:31.259Z,99894.95
2019-02-14T14:09:38.987Z,99893.42
2019-02-14T14:13:44.337Z,99891.73
2019-02-14T14:17:50.056Z,99891.09
2019-02-14T14:21:55.745Z,99889.56
2019-02-14T14:26:01.448Z,99882.22
2019-02-14T14:31:16.594Z,99876.16
2019-02-14T14:35:22.331Z,99865.53
2019-02-14T14:40:17.024Z,99866.66
2019-02-14T14:44:26.863Z,99862.89
2019-02-14T14:49:17.513Z,99854.16
2019-02-14T14:53:23.231Z,99844.17
2019-02-14T14:58:16.897Z,99850.72
2019-02-14T15:02:22.603Z,99846.53
2019-02-14T15:07:16.201Z,99845.33
2019-02-14T15:11:21.918Z,99846.48
2019-02-14T15:15:27.618Z,99847.83
2019-02-14T15:19:34.951Z,99856.25
2019-02-14T15:23:40.670Z,99848.25
2019-02-14T15:27:46.363Z,99857.31
2019-02-14T15:31:52.078Z,99866.32
2019-02-14T15:35:57.769Z,99869.70
2019-02-14T15:40:09.236Z,99866.44
2019-02-14T15:44:18.295Z,99863.14
2019-02-14T15:48:24.000Z,99864.91
2019-02-14T15:52:32.133Z,99856.17
2019-02-14T15:56:37.165Z,99865.00
2019-02-14T16:00:43.028Z,99866.94
2019-02-14T16:04:50.830Z,99860.73
2019-02-14T16:08:57.184Z,99859.07
2019-02-14T16:13:17.710Z,99861.45
2019-02-14T16:17:23.484Z,99871.59
2019-02-14T16:21:31.525Z,99876.06
2019-02-14T16:25:37.312Z,99879.96
2019-02-14T16:29:43.013Z,99884.43
2019-02-14T16:33:48.744Z,99875.84
2019-02-14T16:37:54.421Z,99871.30
2019-02-14T16:42:00.131Z,99867.16
2019-02-14T16:46:05.826Z,99879.17
2019-02-14T16:50:11.772Z,99870.95
2019-02-14T16:54:17.455Z,99882.97
2019-02-14T16:58:23.225Z,99875.95
2019-02-14T17:02:29.034Z,99877.81
2019-02-14T17:06:34.719Z,99878.91
2019-02-14T17:10:40.507Z,99878.34
2019-02-14T17:14:46.192Z,99874.20
2019-02-14T17:18:51.887Z,99875.74
2019-02-14T17:22:57.595Z,99890.72
2019-02-14T17:27:03.386Z,99888.23
2019-02-14T17:31:09.092Z,99888.77
2019-02-14T17:35:14.935Z,99892.31
2019-02-14T17:39:20.632Z,99897.11
2019-02-14T17:43:26.391Z,99902.27
2019-02-14T17:47:33.120Z,99894.13
2019-02-14T17:51:38.796Z,99891.34
2019-02-14T17:55:44.547Z,99894.40
2019-02-14T17:59:50.305Z,99897.12
2019-02-14T18:03:56.014Z,99885.44
2019-02-14T18:08:01.724Z,99889.09
2019-02-14T18:16:52.575Z,99899.92
2019-02-14T18:20:58.313Z,99913.77
2019-02-14T18:25:11.611Z,99911.00
2019-02-14T18:29:17.372Z,99911.34
2019-02-14T18:33:23.087Z,99924.92
2019-02-14T18:37:28.855Z,99923.34
2019-02-14T18:41:37.474Z,99933.53
2019-02-14T18:45:41.969Z,99924.31
2019-02-14T18:49:47.675Z,99918.03
2019-02-14T18:53:53.555Z,99916.97
2019-02-14T18:57:59.355Z,99924.34
2019-02-14T19:02:05.055Z,99907.29
2019-02-14T19:06:11.272Z,99909.39
2019-02-14T19:10:18.145Z,99910.17
2019-02-14T19:14:23.902Z,99906.28
2019-02-14T19:18:31.116Z,99912.45
2019-02-14T19:22:36.831Z,99910.59
2019-02-14T19:26:44.324Z,99902.92
2019-02-14T19:30:50.056Z,99902.11
2019-02-14T19:34:55.742Z,99900.33
2019-02-14T19:39:01.553Z,99897.63
2019-02-14T19:43:07.249Z,99881.11
2019-02-14T19:47:12.946Z,99876.34
2019-02-14T19:51:21.758Z,99883.75
2019-02-14T19:55:26.091Z,99875.28
2019-02-14T19:59:31.802Z,99880.89
2019-02-14T20:03:37.546Z,99886.52
2019-02-14T20:07:43.252Z,99882.95
2019-02-14T20:11:48.934Z,99878.74
2019-02-14T20:15:54.735Z,99873.47
2019-02-14T20:20:00.419Z,99860.59
2019-02-14T20:24:06.313Z,99860.52
2019-02-14T20:28:12.004Z,99863.74
2019-02-14T20:32:17.744Z,99864.73
2019-02-14T20:36:23.459Z,99867.14
2019-02-14T20:40:29.267Z,99876.02
2019-02-14T20:44:34.971Z,99867.14
2019-02-14T20:48:40.655Z,99867.85
2019-02-14T20:52:47.994Z,99870.22
2019-02-14T20:56:53.715Z,99878.98
2019-02-14T21:00:59.802Z,99876.62
2019-02-14T21:05:06.802Z,99872.19
2019-02-14T21:09:12.552Z,99873.16
2019-02-14T21:13:18.493Z,99878.55
2019-02-14T21:17:25.149Z,99891.26
2019-02-14T21:21:30.916Z,99891.45
2019-02-14T21:25:36.705Z,99890.39
2019-02-14T21:29:44.180Z,99892.70
2019-02-14T21:33:49.914Z,99886.98
2019-02-14T21:37:55.999Z,99884.41
2019-02-14T21:42:18.482Z,99879.75
2019-02-14T21:46:09.122Z,99884.33
2019-02-14T21:50:16.287Z,99885.88
2019-02-14T21:54:22.067Z,99893.13
2019-02-14T21:58:27.754Z,99888.78
2019-02-14T22:06:53.050Z,99889.88
2019-02-14T22:10:59.889Z,99883.09
2019-02-14T22:15:21.037Z,99891.26
2019-02-14T22:19:29.767Z,99882.58
2019-02-14T22:23:35.487Z,99888.11
2019-02-14T22:27:41.530Z,99887.03
2019-02-14T22:31:47.240Z,99894.28
2019-02-14T22:35:52.994Z,99891.66
2019-02-14T22:39:59.677Z,99902.73
2019-02-14T22:44:05.470Z,99895.83
2019-02-14T22:48:11.162Z,99902.66
2019-02-14T22:52:16.859Z,99891.52
2019-02-14T22:56:22.623Z,99901.33
2019-02-14T23:00:45.740Z,99896.33
2019-02-14T23:04:51.501Z,99891.46
2019-02-14T23:08:57.178Z,99896.45
2019-02-14T23:13:02.855Z,99896.33
2019-02-14T23:17:08.554Z,99900.80
2019-02-14T23:21:14.242Z,99892.59
2019-02-14T23:25:19.920Z,99892.84
2019-02-14T23:29:25.653Z,99891.56
2019-02-14T23:33:31.293Z,99887.30
2019-02-14T23:37:36.983Z,99889.84
2019-02-14T23:41:42.710Z,99881.66
2019-02-14T23:45:48.503Z,99880.73
2019-02-14T23:49:54.205Z,99884.36
2019-02-14T23:53:59.902Z,99884.92
2019-02-14T23:58:05.594Z,99883.06
